sensor_id;sensor_type;location;lat;lon;timestamp;P1;durP1;ratioP1;P2;durP2;ratioP2
5718;SDS011;2884;47.734;9.244;2022-12-18T00:00:59;48.13;;;24.42;;
5718;SDS011;2884;47.734;9.244;2022-12-18T00:03:25;54.10;;;29.67;;
5718;SDS011;2884;47.734;9.244;2022-12-18T00:05:51;48.23;;;24.87;;
5718;SDS011;2884;47.734;9.244;2022-12-18T00:08:17;53.72;;;25.13;;
5718;SDS011;2884;47.734;9.244;2022-12-18T00:10:44;45.53;;;24.08;;
5718;SDS011;2884;47.734;9.244;2022-12-18T00:13:10;43.88;;;22.27;;
5718;SDS011;2884;47.734;9.244;2022-12-18T00:15:37;44.05;;;23.95;;
5718;SDS011;2884;47.734;9.244;2022-12-18T00:18:04;44.05;;;23.25;;
5718;SDS011;2884;47.734;9.244;2022-12-18T00:20:29;48.77;;;24.40;;
5718;SDS011;2884;47.734;9.244;2022-12-18T00:22:55;49.50;;;25.27;;
5718;SDS011;2884;47.734;9.244;2022-12-18T00:25:21;43.30;;;22.67;;
5718;SDS011;2884;47.734;9.244;2022-12-18T00:27:46;46.30;;;23.83;;
5718;SDS011;2884;47.734;9.244;2022-12-18T00:30:12;46.00;;;25.00;;
5718;SDS011;2884;47.734;9.244;2022-12-18T00:32:38;53.37;;;26.80;;
5718;SDS011;2884;47.734;9.244;2022-12-18T00:35:04;48.70;;;25.57;;
5718;SDS011;2884;47.734;9.244;2022-12-18T00:37:30;45.10;;;23.42;;
5718;SDS011;2884;47.734;9.244;2022-12-18T00:39:56;45.60;;;22.90;;
5718;SDS011;2884;47.734;9.244;2022-12-18T00:42:21;51.77;;;25.17;;
5718;SDS011;2884;47.734;9.244;2022-12-18T00:45:05;45.88;;;23.33;;
5718;SDS011;2884;47.734;9.244;2022-12-18T00:47:31;47.17;;;23.93;;
5718;SDS011;2884;47.734;9.244;2022-12-18T00:49:57;47.70;;;24.30;;
5718;SDS011;2884;47.734;9.244;2022-12-18T00:52:22;50.57;;;23.70;;
5718;SDS011;2884;47.734;9.244;2022-12-18T00:54:48;47.07;;;23.53;;
5718;SDS011;2884;47.734;9.244;2022-12-18T00:57:13;43.10;;;22.50;;
5718;SDS011;2884;47.734;9.244;2022-12-18T00:59:39;53.90;;;24.20;;
5718;SDS011;2884;47.734;9.244;2022-12-18T01:02:04;48.00;;;24.73;;
5718;SDS011;2884;47.734;9.244;2022-12-18T01:04:33;54.10;;;25.20;;
5718;SDS011;2884;47.734;9.244;2022-12-18T01:06:59;44.75;;;21.67;;
5718;SDS011;2884;47.734;9.244;2022-12-18T01:09:24;47.93;;;23.87;;
5718;SDS011;2884;47.734;9.244;2022-12-18T01:11:51;43.28;;;21.92;;
5718;SDS011;2884;47.734;9.244;2022-12-18T01:14:16;48.30;;;22.83;;
5718;SDS011;2884;47.734;9.244;2022-12-18T01:16:42;44.90;;;22.60;;
5718;SDS011;2884;47.734;9.244;2022-12-18T01:19:07;47.73;;;23.63;;
5718;SDS011;2884;47.734;9.244;2022-12-18T01:21:33;48.50;;;23.30;;
5718;SDS011;2884;47.734;9.244;2022-12-18T01:23:59;49.87;;;24.43;;
5718;SDS011;2884;47.734;9.244;2022-12-18T01:26:25;51.83;;;23.80;;
5718;SDS011;2884;47.734;9.244;2022-12-18T01:28:53;50.15;;;24.65;;
5718;SDS011;2884;47.734;9.244;2022-12-18T01:31:26;49.67;;;24.20;;
5718;SDS011;2884;47.734;9.244;2022-12-18T01:33:54;48.55;;;21.85;;
5718;SDS011;2884;47.734;9.244;2022-12-18T01:36:21;47.95;;;24.17;;
5718;SDS011;2884;47.734;9.244;2022-12-18T01:38:51;45.30;;;23.00;;
5718;SDS011;2884;47.734;9.244;2022-12-18T01:41:18;46.45;;;23.65;;
5718;SDS011;2884;47.734;9.244;2022-12-18T01:43:48;49.30;;;25.48;;
5718;SDS011;2884;47.734;9.244;2022-12-18T01:46:22;46.05;;;22.67;;
5718;SDS011;2884;47.734;9.244;2022-12-18T01:48:57;56.75;;;25.27;;
5718;SDS011;2884;47.734;9.244;2022-12-18T01:51:25;48.97;;;25.90;;
5718;SDS011;2884;47.734;9.244;2022-12-18T01:53:52;50.47;;;23.10;;
5718;SDS011;2884;47.734;9.244;2022-12-18T01:56:18;49.97;;;24.80;;
5718;SDS011;2884;47.734;9.244;2022-12-18T02:01:19;49.00;;;23.73;;
5718;SDS011;2884;47.734;9.244;2022-12-18T02:03:46;51.08;;;23.92;;
5718;SDS011;2884;47.734;9.244;2022-12-18T02:06:22;50.43;;;23.97;;
5718;SDS011;2884;47.734;9.244;2022-12-18T02:11:53;45.40;;;23.15;;
5718;SDS011;2884;47.734;9.244;2022-12-18T02:14:38;48.75;;;23.38;;
5718;SDS011;2884;47.734;9.244;2022-12-18T02:17:14;49.97;;;24.27;;
5718;SDS011;2884;47.734;9.244;2022-12-18T02:22:15;42.33;;;21.70;;
5718;SDS011;2884;47.734;9.244;2022-12-18T02:27:42;45.78;;;24.02;;
5718;SDS011;2884;47.734;9.244;2022-12-18T02:30:10;44.17;;;22.15;;
5718;SDS011;2884;47.734;9.244;2022-12-18T02:32:40;49.63;;;23.40;;
5718;SDS011;2884;47.734;9.244;2022-12-18T02:35:09;45.95;;;22.58;;
5718;SDS011;2884;47.734;9.244;2022-12-18T02:37:38;53.88;;;24.60;;
5718;SDS011;2884;47.734;9.244;2022-12-18T02:40:05;45.25;;;22.88;;
5718;SDS011;2884;47.734;9.244;2022-12-18T02:42:31;48.60;;;22.13;;
5718;SDS011;2884;47.734;9.244;2022-12-18T02:44:57;44.05;;;22.70;;
5718;SDS011;2884;47.734;9.244;2022-12-18T02:47:24;41.30;;;22.47;;
5718;SDS011;2884;47.734;9.244;2022-12-18T02:49:58;45.38;;;21.52;;
5718;SDS011;2884;47.734;9.244;2022-12-18T02:52:42;45.53;;;21.70;;
5718;SDS011;2884;47.734;9.244;2022-12-18T02:55:19;45.72;;;21.17;;
5718;SDS011;2884;47.734;9.244;2022-12-18T02:58:06;45.42;;;22.02;;
5718;SDS011;2884;47.734;9.244;2022-12-18T03:00:39;43.90;;;21.67;;
5718;SDS011;2884;47.734;9.244;2022-12-18T03:05:56;41.08;;;22.40;;
5718;SDS011;2884;47.734;9.244;2022-12-18T03:08:29;44.05;;;22.25;;
5718;SDS011;2884;47.734;9.244;2022-12-18T03:11:07;45.47;;;21.83;;
5718;SDS011;2884;47.734;9.244;2022-12-18T03:13:35;44.80;;;21.77;;
5718;SDS011;2884;47.734;9.244;2022-12-18T03:16:05;43.97;;;21.80;;
5718;SDS011;2884;47.734;9.244;2022-12-18T03:18:35;41.53;;;22.40;;
5718;SDS011;2884;47.734;9.244;2022-12-18T03:21:05;41.35;;;20.95;;
5718;SDS011;2884;47.734;9.244;2022-12-18T03:23:36;42.67;;;21.50;;
5718;SDS011;2884;47.734;9.244;2022-12-18T03:26:07;45.10;;;22.15;;
5718;SDS011;2884;47.734;9.244;2022-12-18T03:28:37;45.55;;;21.98;;
5718;SDS011;2884;47.734;9.244;2022-12-18T03:31:05;46.35;;;22.45;;
5718;SDS011;2884;47.734;9.244;2022-12-18T03:36:09;44.03;;;22.65;;
5718;SDS011;2884;47.734;9.244;2022-12-18T03:38:35;51.90;;;21.47;;
5718;SDS011;2884;47.734;9.244;2022-12-18T03:43:32;42.47;;;20.97;;
5718;SDS011;2884;47.734;9.244;2022-12-18T03:46:24;48.45;;;21.92;;
5718;SDS011;2884;47.734;9.244;2022-12-18T03:48:52;38.70;;;21.17;;
5718;SDS011;2884;47.734;9.244;2022-12-18T03:51:35;43.00;;;21.58;;
5718;SDS011;2884;47.734;9.244;2022-12-18T03:54:05;48.40;;;22.67;;
5718;SDS011;2884;47.734;9.244;2022-12-18T03:56:35;44.78;;;21.88;;
5718;SDS011;2884;47.734;9.244;2022-12-18T03:59:04;43.47;;;22.05;;
5718;SDS011;2884;47.734;9.244;2022-12-18T04:01:38;43.43;;;22.80;;
5718;SDS011;2884;47.734;9.244;2022-12-18T04:04:09;42.08;;;22.90;;
5718;SDS011;2884;47.734;9.244;2022-12-18T04:06:35;39.92;;;20.30;;
5718;SDS011;2884;47.734;9.244;2022-12-18T04:09:01;41.25;;;21.38;;
5718;SDS011;2884;47.734;9.244;2022-12-18T04:11:27;41.50;;;20.47;;
5718;SDS011;2884;47.734;9.244;2022-12-18T04:13:56;42.57;;;21.33;;
5718;SDS011;2884;47.734;9.244;2022-12-18T04:16:23;45.35;;;21.42;;
5718;SDS011;2884;47.734;9.244;2022-12-18T04:18:50;42.88;;;21.80;;
5718;SDS011;2884;47.734;9.244;2022-12-18T04:21:15;50.90;;;21.67;;
5718;SDS011;2884;47.734;9.244;2022-12-18T04:23:41;40.83;;;20.67;;
5718;SDS011;2884;47.734;9.244;2022-12-18T04:26:06;45.57;;;21.23;;
5718;SDS011;2884;47.734;9.244;2022-12-18T04:28:32;46.57;;;22.60;;
5718;SDS011;2884;47.734;9.244;2022-12-18T04:30:57;46.80;;;22.90;;
5718;SDS011;2884;47.734;9.244;2022-12-18T04:33:23;45.03;;;22.53;;
5718;SDS011;2884;47.734;9.244;2022-12-18T04:35:48;44.43;;;21.60;;
5718;SDS011;2884;47.734;9.244;2022-12-18T04:38:14;49.87;;;23.47;;
5718;SDS011;2884;47.734;9.244;2022-12-18T04:40:40;44.28;;;22.23;;
5718;SDS011;2884;47.734;9.244;2022-12-18T04:43:06;48.53;;;22.73;;
5718;SDS011;2884;47.734;9.244;2022-12-18T04:45:34;42.17;;;21.20;;
5718;SDS011;2884;47.734;9.244;2022-12-18T04:48:01;46.55;;;22.13;;
5718;SDS011;2884;47.734;9.244;2022-12-18T04:50:27;45.33;;;22.17;;
5718;SDS011;2884;47.734;9.244;2022-12-18T04:52:52;46.70;;;23.60;;
5718;SDS011;2884;47.734;9.244;2022-12-18T04:55:18;47.10;;;22.00;;
5718;SDS011;2884;47.734;9.244;2022-12-18T04:57:44;46.53;;;23.40;;
5718;SDS011;2884;47.734;9.244;2022-12-18T05:00:09;45.33;;;21.97;;
5718;SDS011;2884;47.734;9.244;2022-12-18T05:02:35;42.03;;;20.50;;
5718;SDS011;2884;47.734;9.244;2022-12-18T05:05:01;42.57;;;21.57;;
5718;SDS011;2884;47.734;9.244;2022-12-18T05:07:29;44.17;;;23.15;;
5718;SDS011;2884;47.734;9.244;2022-12-18T05:09:55;40.80;;;20.57;;
5718;SDS011;2884;47.734;9.244;2022-12-18T05:12:24;35.57;;;19.47;;
5718;SDS011;2884;47.734;9.244;2022-12-18T05:14:49;40.40;;;20.08;;
5718;SDS011;2884;47.734;9.244;2022-12-18T05:17:15;35.57;;;18.83;;
5718;SDS011;2884;47.734;9.244;2022-12-18T05:19:41;36.73;;;19.47;;
5718;SDS011;2884;47.734;9.244;2022-12-18T05:22:10;45.57;;;21.57;;
5718;SDS011;2884;47.734;9.244;2022-12-18T05:24:37;40.92;;;20.83;;
5718;SDS011;2884;47.734;9.244;2022-12-18T05:27:02;43.67;;;20.73;;
5718;SDS011;2884;47.734;9.244;2022-12-18T05:29:28;40.40;;;20.33;;
5718;SDS011;2884;47.734;9.244;2022-12-18T05:31:53;42.23;;;20.53;;
5718;SDS011;2884;47.734;9.244;2022-12-18T05:34:19;41.20;;;19.93;;
5718;SDS011;2884;47.734;9.244;2022-12-18T05:36:54;44.78;;;22.45;;
5718;SDS011;2884;47.734;9.244;2022-12-18T05:39:22;42.37;;;19.67;;
5718;SDS011;2884;47.734;9.244;2022-12-18T05:41:48;41.63;;;21.50;;
5718;SDS011;2884;47.734;9.244;2022-12-18T05:44:13;50.60;;;23.27;;
5718;SDS011;2884;47.734;9.244;2022-12-18T05:46:42;43.30;;;21.63;;
5718;SDS011;2884;47.734;9.244;2022-12-18T05:49:07;39.60;;;19.83;;
5718;SDS011;2884;47.734;9.244;2022-12-18T05:51:33;40.57;;;20.30;;
5718;SDS011;2884;47.734;9.244;2022-12-18T05:53:58;46.33;;;20.47;;
5718;SDS011;2884;47.734;9.244;2022-12-18T05:56:24;47.10;;;20.40;;
5718;SDS011;2884;47.734;9.244;2022-12-18T05:58:53;43.33;;;23.03;;
5718;SDS011;2884;47.734;9.244;2022-12-18T06:01:20;37.15;;;20.73;;
5718;SDS011;2884;47.734;9.244;2022-12-18T06:03:47;40.33;;;21.42;;
5718;SDS011;2884;47.734;9.244;2022-12-18T06:06:14;48.15;;;22.65;;
5718;SDS011;2884;47.734;9.244;2022-12-18T06:08:41;45.53;;;22.20;;
5718;SDS011;2884;47.734;9.244;2022-12-18T06:11:06;43.53;;;20.73;;
5718;SDS011;2884;47.734;9.244;2022-12-18T06:13:32;42.10;;;21.10;;
5718;SDS011;2884;47.734;9.244;2022-12-18T06:15:58;40.33;;;20.40;;
5718;SDS011;2884;47.734;9.244;2022-12-18T06:18:24;38.95;;;19.13;;
5718;SDS011;2884;47.734;9.244;2022-12-18T06:20:54;39.97;;;20.83;;
5718;SDS011;2884;47.734;9.244;2022-12-18T06:23:23;41.78;;;20.30;;
5718;SDS011;2884;47.734;9.244;2022-12-18T06:25:48;42.33;;;21.73;;
5718;SDS011;2884;47.734;9.244;2022-12-18T06:28:14;40.10;;;20.23;;
5718;SDS011;2884;47.734;9.244;2022-12-18T06:30:40;41.87;;;19.73;;
5718;SDS011;2884;47.734;9.244;2022-12-18T06:33:08;46.13;;;22.63;;
5718;SDS011;2884;47.734;9.244;2022-12-18T06:35:34;43.60;;;21.47;;
5718;SDS011;2884;47.734;9.244;2022-12-18T06:38:00;44.70;;;21.37;;
5718;SDS011;2884;47.734;9.244;2022-12-18T06:40:26;46.88;;;21.80;;
5718;SDS011;2884;47.734;9.244;2022-12-18T06:42:52;39.93;;;19.50;;
5718;SDS011;2884;47.734;9.244;2022-12-18T06:45:18;39.20;;;19.80;;
5718;SDS011;2884;47.734;9.244;2022-12-18T06:47:43;43.77;;;22.13;;
5718;SDS011;2884;47.734;9.244;2022-12-18T06:50:09;50.70;;;22.70;;
5718;SDS011;2884;47.734;9.244;2022-12-18T06:52:35;46.67;;;20.80;;
5718;SDS011;2884;47.734;9.244;2022-12-18T06:55:02;48.17;;;22.25;;
5718;SDS011;2884;47.734;9.244;2022-12-18T06:57:28;42.97;;;20.65;;
5718;SDS011;2884;47.734;9.244;2022-12-18T06:59:54;49.03;;;22.20;;
5718;SDS011;2884;47.734;9.244;2022-12-18T07:02:19;48.03;;;21.50;;
5718;SDS011;2884;47.734;9.244;2022-12-18T07:04:45;40.67;;;19.70;;
5718;SDS011;2884;47.734;9.244;2022-12-18T07:07:10;43.70;;;21.47;;
5718;SDS011;2884;47.734;9.244;2022-12-18T07:09:36;43.90;;;21.97;;
5718;SDS011;2884;47.734;9.244;2022-12-18T07:12:02;50.20;;;21.87;;
5718;SDS011;2884;47.734;9.244;2022-12-18T07:14:27;51.00;;;22.67;;
5718;SDS011;2884;47.734;9.244;2022-12-18T07:16:53;43.83;;;21.70;;
5718;SDS011;2884;47.734;9.244;2022-12-18T07:19:19;45.00;;;22.03;;
5718;SDS011;2884;47.734;9.244;2022-12-18T07:21:44;41.60;;;21.03;;
5718;SDS011;2884;47.734;9.244;2022-12-18T07:24:10;42.47;;;19.90;;
5718;SDS011;2884;47.734;9.244;2022-12-18T07:26:35;47.27;;;21.30;;
5718;SDS011;2884;47.734;9.244;2022-12-18T07:29:01;45.73;;;21.50;;
5718;SDS011;2884;47.734;9.244;2022-12-18T07:31:26;43.23;;;20.60;;
5718;SDS011;2884;47.734;9.244;2022-12-18T07:33:52;49.87;;;22.93;;
5718;SDS011;2884;47.734;9.244;2022-12-18T07:36:18;43.43;;;20.33;;
5718;SDS011;2884;47.734;9.244;2022-12-18T07:38:46;45.30;;;20.60;;
5718;SDS011;2884;47.734;9.244;2022-12-18T07:41:12;42.30;;;20.80;;
5718;SDS011;2884;47.734;9.244;2022-12-18T07:43:39;42.88;;;20.80;;
5718;SDS011;2884;47.734;9.244;2022-12-18T07:46:05;59.67;;;22.30;;
5718;SDS011;2884;47.734;9.244;2022-12-18T07:48:31;47.88;;;24.42;;
5718;SDS011;2884;47.734;9.244;2022-12-18T07:51:00;45.53;;;22.73;;
5718;SDS011;2884;47.734;9.244;2022-12-18T07:53:26;44.38;;;23.30;;
5718;SDS011;2884;47.734;9.244;2022-12-18T07:55:56;50.80;;;21.40;;
5718;SDS011;2884;47.734;9.244;2022-12-18T07:58:25;47.55;;;22.17;;
5718;SDS011;2884;47.734;9.244;2022-12-18T08:00:51;46.27;;;21.00;;
5718;SDS011;2884;47.734;9.244;2022-12-18T08:03:17;51.10;;;24.38;;
5718;SDS011;2884;47.734;9.244;2022-12-18T08:05:43;50.47;;;22.25;;
5718;SDS011;2884;47.734;9.244;2022-12-18T08:08:09;41.80;;;21.23;;
5718;SDS011;2884;47.734;9.244;2022-12-18T08:10:35;45.47;;;22.03;;
5718;SDS011;2884;47.734;9.244;2022-12-18T08:13:00;45.03;;;21.97;;
5718;SDS011;2884;47.734;9.244;2022-12-18T08:15:25;41.30;;;20.83;;
5718;SDS011;2884;47.734;9.244;2022-12-18T08:17:51;45.40;;;21.93;;
5718;SDS011;2884;47.734;9.244;2022-12-18T08:20:17;40.20;;;20.20;;
5718;SDS011;2884;47.734;9.244;2022-12-18T08:22:43;48.22;;;24.45;;
5718;SDS011;2884;47.734;9.244;2022-12-18T08:25:09;44.53;;;20.77;;
5718;SDS011;2884;47.734;9.244;2022-12-18T08:27:35;39.30;;;21.70;;
5718;SDS011;2884;47.734;9.244;2022-12-18T08:30:01;44.45;;;21.85;;
5718;SDS011;2884;47.734;9.244;2022-12-18T08:32:28;43.00;;;21.67;;
5718;SDS011;2884;47.734;9.244;2022-12-18T08:34:53;43.43;;;20.63;;
5718;SDS011;2884;47.734;9.244;2022-12-18T08:37:19;42.63;;;21.30;;
5718;SDS011;2884;47.734;9.244;2022-12-18T08:39:44;44.00;;;20.43;;
5718;SDS011;2884;47.734;9.244;2022-12-18T08:42:10;46.93;;;20.80;;
5718;SDS011;2884;47.734;9.244;2022-12-18T08:45:11;52.20;;;21.58;;
5718;SDS011;2884;47.734;9.244;2022-12-18T08:47:37;44.67;;;21.47;;
5718;SDS011;2884;47.734;9.244;2022-12-18T08:50:02;51.83;;;23.43;;
5718;SDS011;2884;47.734;9.244;2022-12-18T08:52:28;44.30;;;21.73;;
5718;SDS011;2884;47.734;9.244;2022-12-18T08:54:56;48.90;;;20.92;;
5718;SDS011;2884;47.734;9.244;2022-12-18T08:57:22;48.67;;;22.70;;
5718;SDS011;2884;47.734;9.244;2022-12-18T08:59:47;46.37;;;21.17;;
5718;SDS011;2884;47.734;9.244;2022-12-18T09:02:13;53.73;;;21.87;;
5718;SDS011;2884;47.734;9.244;2022-12-18T09:04:38;44.93;;;21.20;;
5718;SDS011;2884;47.734;9.244;2022-12-18T09:07:05;44.80;;;20.08;;
5718;SDS011;2884;47.734;9.244;2022-12-18T09:09:31;47.43;;;22.20;;
5718;SDS011;2884;47.734;9.244;2022-12-18T09:11:56;44.30;;;21.87;;
5718;SDS011;2884;47.734;9.244;2022-12-18T09:14:22;47.00;;;21.50;;
5718;SDS011;2884;47.734;9.244;2022-12-18T09:16:47;43.40;;;21.23;;
5718;SDS011;2884;47.734;9.244;2022-12-18T09:19:13;44.13;;;20.03;;
5718;SDS011;2884;47.734;9.244;2022-12-18T09:21:38;44.17;;;20.40;;
5718;SDS011;2884;47.734;9.244;2022-12-18T09:24:04;48.80;;;22.20;;
5718;SDS011;2884;47.734;9.244;2022-12-18T09:26:30;42.75;;;19.90;;
5718;SDS011;2884;47.734;9.244;2022-12-18T09:28:56;47.53;;;20.23;;
5718;SDS011;2884;47.734;9.244;2022-12-18T09:31:22;41.30;;;19.87;;
5718;SDS011;2884;47.734;9.244;2022-12-18T09:33:49;43.42;;;20.60;;
5718;SDS011;2884;47.734;9.244;2022-12-18T09:36:16;45.53;;;23.38;;
5718;SDS011;2884;47.734;9.244;2022-12-18T09:38:42;48.47;;;21.08;;
5718;SDS011;2884;47.734;9.244;2022-12-18T09:44:11;45.38;;;21.35;;
5718;SDS011;2884;47.734;9.244;2022-12-18T09:46:43;50.75;;;22.45;;
5718;SDS011;2884;47.734;9.244;2022-12-18T09:49:12;49.60;;;23.05;;
5718;SDS011;2884;47.734;9.244;2022-12-18T09:51:45;49.78;;;22.50;;
5718;SDS011;2884;47.734;9.244;2022-12-18T09:54:19;47.00;;;22.15;;
5718;SDS011;2884;47.734;9.244;2022-12-18T09:56:47;45.67;;;20.08;;
5718;SDS011;2884;47.734;9.244;2022-12-18T09:59:23;45.93;;;22.90;;
5718;SDS011;2884;47.734;9.244;2022-12-18T10:01:51;42.78;;;20.73;;
5718;SDS011;2884;47.734;9.244;2022-12-18T10:04:17;54.30;;;24.87;;
5718;SDS011;2884;47.734;9.244;2022-12-18T10:06:48;45.37;;;21.83;;
5718;SDS011;2884;47.734;9.244;2022-12-18T10:17:26;57.40;;;24.52;;
5718;SDS011;2884;47.734;9.244;2022-12-18T10:19:59;47.58;;;22.90;;
5718;SDS011;2884;47.734;9.244;2022-12-18T10:22:43;41.20;;;21.58;;
5718;SDS011;2884;47.734;9.244;2022-12-18T10:26:11;53.85;;;24.05;;
5718;SDS011;2884;47.734;9.244;2022-12-18T10:28:20;53.60;;;25.30;;
5718;SDS011;2884;47.734;9.244;2022-12-18T10:30:47;51.80;;;22.80;;
5718;SDS011;2884;47.734;9.244;2022-12-18T10:33:18;47.10;;;21.63;;
5718;SDS011;2884;47.734;9.244;2022-12-18T10:35:52;44.75;;;22.65;;
5718;SDS011;2884;47.734;9.244;2022-12-18T10:40:48;43.67;;;21.05;;
5718;SDS011;2884;47.734;9.244;2022-12-18T10:43:15;44.50;;;20.95;;
5718;SDS011;2884;47.734;9.244;2022-12-18T10:45:42;53.15;;;24.42;;
5718;SDS011;2884;47.734;9.244;2022-12-18T10:48:20;49.10;;;21.80;;
5718;SDS011;2884;47.734;9.244;2022-12-18T10:50:48;44.28;;;21.80;;
5718;SDS011;2884;47.734;9.244;2022-12-18T10:53:25;50.20;;;24.08;;
5718;SDS011;2884;47.734;9.244;2022-12-18T10:55:52;51.95;;;23.95;;
5718;SDS011;2884;47.734;9.244;2022-12-18T10:58:28;46.42;;;23.20;;
5718;SDS011;2884;47.734;9.244;2022-12-18T11:03:38;45.20;;;22.60;;
5718;SDS011;2884;47.734;9.244;2022-12-18T11:06:16;57.35;;;24.50;;
5718;SDS011;2884;47.734;9.244;2022-12-18T11:09:06;47.58;;;22.42;;
5718;SDS011;2884;47.734;9.244;2022-12-18T11:11:48;47.95;;;21.02;;
5718;SDS011;2884;47.734;9.244;2022-12-18T11:14:24;54.55;;;24.58;;
5718;SDS011;2884;47.734;9.244;2022-12-18T11:16:54;50.13;;;23.73;;
5718;SDS011;2884;47.734;9.244;2022-12-18T11:22:50;48.28;;;23.05;;
5718;SDS011;2884;47.734;9.244;2022-12-18T11:24:52;46.13;;;23.48;;
5718;SDS011;2884;47.734;9.244;2022-12-18T11:27:20;48.05;;;22.42;;
5718;SDS011;2884;47.734;9.244;2022-12-18T11:29:46;52.40;;;24.33;;
5718;SDS011;2884;47.734;9.244;2022-12-18T11:34:41;49.73;;;23.53;;
5718;SDS011;2884;47.734;9.244;2022-12-18T11:37:12;49.35;;;23.40;;
5718;SDS011;2884;47.734;9.244;2022-12-18T11:39:45;51.22;;;24.08;;
5718;SDS011;2884;47.734;9.244;2022-12-18T11:42:30;45.28;;;22.45;;
5718;SDS011;2884;47.734;9.244;2022-12-18T11:45:25;57.22;;;25.15;;
5718;SDS011;2884;47.734;9.244;2022-12-18T11:50:52;55.10;;;22.85;;
5718;SDS011;2884;47.734;9.244;2022-12-18T11:53:19;51.28;;;23.92;;
5718;SDS011;2884;47.734;9.244;2022-12-18T11:58:34;51.70;;;23.77;;
5718;SDS011;2884;47.734;9.244;2022-12-18T12:09:08;49.38;;;22.83;;
5718;SDS011;2884;47.734;9.244;2022-12-18T12:17:47;51.78;;;26.10;;
5718;SDS011;2884;47.734;9.244;2022-12-18T12:27:03;56.95;;;25.17;;
5718;SDS011;2884;47.734;9.244;2022-12-18T12:29:23;46.85;;;23.33;;
5718;SDS011;2884;47.734;9.244;2022-12-18T12:43:38;44.03;;;22.20;;
5718;SDS011;2884;47.734;9.244;2022-12-18T12:46:10;56.35;;;23.25;;
5718;SDS011;2884;47.734;9.244;2022-12-18T12:51:14;53.88;;;24.00;;
5718;SDS011;2884;47.734;9.244;2022-12-18T12:53:42;54.08;;;24.40;;
5718;SDS011;2884;47.734;9.244;2022-12-18T12:56:08;49.70;;;24.83;;
5718;SDS011;2884;47.734;9.244;2022-12-18T13:01:57;50.35;;;24.40;;
5718;SDS011;2884;47.734;9.244;2022-12-18T13:07:04;51.03;;;24.33;;
5718;SDS011;2884;47.734;9.244;2022-12-18T13:09:33;54.15;;;23.92;;
5718;SDS011;2884;47.734;9.244;2022-12-18T13:12:04;51.03;;;24.70;;
5718;SDS011;2884;47.734;9.244;2022-12-18T13:14:51;55.72;;;25.73;;
5718;SDS011;2884;47.734;9.244;2022-12-18T13:19:48;50.00;;;24.23;;
5718;SDS011;2884;47.734;9.244;2022-12-18T13:35:41;62.33;;;26.67;;
5718;SDS011;2884;47.734;9.244;2022-12-18T13:41:00;59.63;;;23.27;;
5718;SDS011;2884;47.734;9.244;2022-12-18T13:43:39;60.78;;;25.67;;
5718;SDS011;2884;47.734;9.244;2022-12-18T13:46:21;67.13;;;26.52;;
5718;SDS011;2884;47.734;9.244;2022-12-18T13:48:50;51.88;;;24.15;;
5718;SDS011;2884;47.734;9.244;2022-12-18T13:51:17;57.58;;;25.23;;
5718;SDS011;2884;47.734;9.244;2022-12-18T13:53:46;54.28;;;25.35;;
5718;SDS011;2884;47.734;9.244;2022-12-18T13:56:27;53.97;;;26.42;;
5718;SDS011;2884;47.734;9.244;2022-12-18T14:01:58;50.17;;;24.60;;
5718;SDS011;2884;47.734;9.244;2022-12-18T14:04:26;61.90;;;26.30;;
5718;SDS011;2884;47.734;9.244;2022-12-18T14:06:57;59.35;;;25.40;;
5718;SDS011;2884;47.734;9.244;2022-12-18T14:09:27;59.60;;;26.73;;
5718;SDS011;2884;47.734;9.244;2022-12-18T14:11:54;59.05;;;26.98;;
5718;SDS011;2884;47.734;9.244;2022-12-18T14:14:44;52.42;;;22.77;;
5718;SDS011;2884;47.734;9.244;2022-12-18T14:17:12;61.92;;;25.45;;
5718;SDS011;2884;47.734;9.244;2022-12-18T14:19:42;58.08;;;24.13;;
5718;SDS011;2884;47.734;9.244;2022-12-18T14:22:20;56.78;;;25.58;;
5718;SDS011;2884;47.734;9.244;2022-12-18T14:25:04;54.33;;;25.00;;
5718;SDS011;2884;47.734;9.244;2022-12-18T14:27:44;55.60;;;25.35;;
5718;SDS011;2884;47.734;9.244;2022-12-18T14:30:38;53.25;;;23.30;;
5718;SDS011;2884;47.734;9.244;2022-12-18T14:36:03;54.78;;;25.25;;
5718;SDS011;2884;47.734;9.244;2022-12-18T14:38:38;61.10;;;27.58;;
5718;SDS011;2884;47.734;9.244;2022-12-18T14:41:15;53.58;;;24.65;;
5718;SDS011;2884;47.734;9.244;2022-12-18T14:43:42;52.55;;;24.67;;
5718;SDS011;2884;47.734;9.244;2022-12-18T14:48:54;63.92;;;28.20;;
5718;SDS011;2884;47.734;9.244;2022-12-18T14:51:21;58.00;;;26.00;;
5718;SDS011;2884;47.734;9.244;2022-12-18T14:58:51;56.55;;;26.30;;
5718;SDS011;2884;47.734;9.244;2022-12-18T15:01:26;53.08;;;25.00;;
5718;SDS011;2884;47.734;9.244;2022-12-18T15:03:54;66.07;;;26.40;;
5718;SDS011;2884;47.734;9.244;2022-12-18T15:06:30;49.15;;;23.65;;
5718;SDS011;2884;47.734;9.244;2022-12-18T15:08:58;58.65;;;25.70;;
5718;SDS011;2884;47.734;9.244;2022-12-18T15:14:22;58.80;;;26.83;;
5718;SDS011;2884;47.734;9.244;2022-12-18T15:16:54;55.00;;;24.67;;
5718;SDS011;2884;47.734;9.244;2022-12-18T15:19:31;56.08;;;23.65;;
5718;SDS011;2884;47.734;9.244;2022-12-18T15:21:58;57.10;;;26.33;;
5718;SDS011;2884;47.734;9.244;2022-12-18T15:24:26;53.70;;;25.40;;
5718;SDS011;2884;47.734;9.244;2022-12-18T15:26:56;59.40;;;25.83;;
5718;SDS011;2884;47.734;9.244;2022-12-18T15:29:24;55.57;;;23.77;;
5718;SDS011;2884;47.734;9.244;2022-12-18T15:32:01;56.03;;;25.50;;
5718;SDS011;2884;47.734;9.244;2022-12-18T15:34:29;62.00;;;25.40;;
5718;SDS011;2884;47.734;9.244;2022-12-18T15:36:55;63.17;;;26.23;;
5718;SDS011;2884;47.734;9.244;2022-12-18T15:39:20;55.57;;;25.23;;
5718;SDS011;2884;47.734;9.244;2022-12-18T15:41:46;55.50;;;25.17;;
5718;SDS011;2884;47.734;9.244;2022-12-18T15:44:30;67.60;;;27.20;;
5718;SDS011;2884;47.734;9.244;2022-12-18T15:46:57;59.63;;;27.43;;
5718;SDS011;2884;47.734;9.244;2022-12-18T15:49:22;56.72;;;26.98;;
5718;SDS011;2884;47.734;9.244;2022-12-18T15:51:52;58.50;;;26.20;;
5718;SDS011;2884;47.734;9.244;2022-12-18T15:54:20;59.92;;;27.00;;
5718;SDS011;2884;47.734;9.244;2022-12-18T15:57:09;61.65;;;24.90;;
5718;SDS011;2884;47.734;9.244;2022-12-18T15:59:52;56.88;;;25.15;;
5718;SDS011;2884;47.734;9.244;2022-12-18T16:02:19;62.05;;;27.05;;
5718;SDS011;2884;47.734;9.244;2022-12-18T16:04:47;62.40;;;27.13;;
5718;SDS011;2884;47.734;9.244;2022-12-18T16:07:13;57.97;;;26.17;;
5718;SDS011;2884;47.734;9.244;2022-12-18T16:09:38;50.17;;;25.00;;
5718;SDS011;2884;47.734;9.244;2022-12-18T16:12:05;60.13;;;26.00;;
5718;SDS011;2884;47.734;9.244;2022-12-18T16:14:31;59.38;;;25.98;;
5718;SDS011;2884;47.734;9.244;2022-12-18T16:17:02;54.80;;;26.00;;
5718;SDS011;2884;47.734;9.244;2022-12-18T16:19:29;66.93;;;27.30;;
5718;SDS011;2884;47.734;9.244;2022-12-18T16:21:55;63.13;;;26.80;;
5718;SDS011;2884;47.734;9.244;2022-12-18T16:24:23;63.67;;;27.20;;
5718;SDS011;2884;47.734;9.244;2022-12-18T16:26:50;66.20;;;27.38;;
5718;SDS011;2884;47.734;9.244;2022-12-18T16:29:17;59.63;;;26.42;;
5718;SDS011;2884;47.734;9.244;2022-12-18T16:31:43;56.55;;;26.02;;
5718;SDS011;2884;47.734;9.244;2022-12-18T16:34:13;63.77;;;25.90;;
5718;SDS011;2884;47.734;9.244;2022-12-18T16:36:43;68.40;;;27.70;;
5718;SDS011;2884;47.734;9.244;2022-12-18T16:39:08;63.90;;;25.43;;
5718;SDS011;2884;47.734;9.244;2022-12-18T16:41:33;64.63;;;27.20;;
5718;SDS011;2884;47.734;9.244;2022-12-18T16:44:00;61.38;;;27.77;;
5718;SDS011;2884;47.734;9.244;2022-12-18T16:46:26;61.37;;;27.83;;
5718;SDS011;2884;47.734;9.244;2022-12-18T16:48:51;68.90;;;26.23;;
5718;SDS011;2884;47.734;9.244;2022-12-18T16:51:17;64.83;;;27.00;;
5718;SDS011;2884;47.734;9.244;2022-12-18T16:53:43;57.67;;;25.70;;
5718;SDS011;2884;47.734;9.244;2022-12-18T16:56:08;53.93;;;25.67;;
5718;SDS011;2884;47.734;9.244;2022-12-18T16:58:34;62.50;;;25.60;;
5718;SDS011;2884;47.734;9.244;2022-12-18T17:01:00;56.70;;;27.40;;